Terminal Aerodrome Forecast
Issued by NWS

Home | Current Version | Previous Version | Text Only | Print | Product List | Glossary On
Versions: 1 2 3 4 5 6 7 8 9 10 11 12 13 14 15 16 17 18 19 20 21 22 23 24 25 26 27 28 29 30 31 32 33 34 35 36 37 38 39 40 41 42 43 44 45
000
FTUS46 KPQR 010520
TAFONP
TAF
KONP 010520Z 0106/0206 09003KT P6SM SKC
     FM011200 09003KT 6SM BR FEW002
     FM011600 09005KT P6SM FEW200
     FM012000 33008KT P6SM SCT200
     FM012330 36003KT P6SM SCT150 OVC200=

USA.gov is the U.S. government's official web portal to all federal, state and local government web resources and services.